createdAt,value
2022-08-31T00:00:50.853Z,12.80
2022-08-31T00:06:02.634Z,12.80
2022-08-31T00:11:10.602Z,12.70
2022-08-31T00:16:14.386Z,12.70
2022-08-31T00:21:18.270Z,12.60
2022-08-31T00:26:23.504Z,12.70
2022-08-31T00:31:27.442Z,12.60
2022-08-31T00:36:31.304Z,12.60
2022-08-31T00:41:39.162Z,12.50
2022-08-31T00:46:44.525Z,12.60
2022-08-31T00:51:57.812Z,12.60
2022-08-31T00:57:01.803Z,12.70
2022-08-31T01:02:06.261Z,12.70
2022-08-31T01:07:11.007Z,12.90
2022-08-31T01:12:15.107Z,12.90
2022-08-31T01:17:20.040Z,13.00
2022-08-31T01:22:33.994Z,13.10
2022-08-31T01:27:38.660Z,13.10
2022-08-31T01:32:42.440Z,13.20
2022-08-31T01:37:46.173Z,13.30
2022-08-31T01:42:50.354Z,13.30
2022-08-31T01:47:54.151Z,13.40
2022-08-31T01:52:58.152Z,13.40
2022-08-31T01:58:02.184Z,13.40
2022-08-31T02:03:08.641Z,13.50
2022-08-31T02:08:12.524Z,13.50
2022-08-31T02:13:16.690Z,13.50
2022-08-31T02:18:20.443Z,13.50
2022-08-31T02:23:26.471Z,13.60
2022-08-31T02:28:30.301Z,13.60
2022-08-31T02:33:33.723Z,13.60
2022-08-31T02:38:38.318Z,13.70
2022-08-31T02:43:41.643Z,13.70
2022-08-31T02:48:45.272Z,13.80
2022-08-31T02:53:48.892Z,13.70
2022-08-31T02:58:55.508Z,13.80
2022-08-31T03:03:59.193Z,13.80
2022-08-31T03:09:03.525Z,13.80
2022-08-31T03:14:07.077Z,13.80
2022-08-31T03:19:11.119Z,13.70
2022-08-31T03:24:18.729Z,13.70
2022-08-31T03:29:25.522Z,13.70
2022-08-31T03:34:29.154Z,13.70
2022-08-31T03:39:32.413Z,13.70
2022-08-31T03:44:36.052Z,13.70
2022-08-31T03:49:39.453Z,13.70
2022-08-31T03:54:44.160Z,13.70
2022-08-31T03:59:47.422Z,13.70
2022-08-31T04:04:55.512Z,13.70
2022-08-31T04:09:58.884Z,13.70
2022-08-31T04:15:03.083Z,13.70
2022-08-31T04:20:07.543Z,13.70
2022-08-31T04:25:11.293Z,13.70
2022-08-31T04:30:14.973Z,13.70
2022-08-31T04:35:18.413Z,13.70
2022-08-31T04:40:26.101Z,13.70
2022-08-31T04:45:30.005Z,13.80
2022-08-31T04:50:33.941Z,13.80
2022-08-31T04:55:41.374Z,13.90
2022-08-31T05:00:44.933Z,13.90
2022-08-31T05:05:51.365Z,14.00
2022-08-31T05:10:54.693Z,14.00
2022-08-31T05:15:58.930Z,14.10
2022-08-31T05:21:15.752Z,14.20
2022-08-31T05:26:26.035Z,14.40
2022-08-31T05:31:30.643Z,14.50
2022-08-31T05:36:34.948Z,14.60
2022-08-31T05:41:40.709Z,14.70
2022-08-31T05:46:44.593Z,14.80
2022-08-31T05:51:55.811Z,14.90
2022-08-31T05:57:01.301Z,15.10
2022-08-31T06:02:09.872Z,15.20
2022-08-31T06:07:13.321Z,15.20
2022-08-31T06:12:18.013Z,15.30
2022-08-31T06:17:21.318Z,15.40
2022-08-31T06:22:28.203Z,15.50
2022-08-31T06:27:32.920Z,15.70
2022-08-31T06:32:36.809Z,16.00
2022-08-31T06:37:39.961Z,16.20
2022-08-31T06:42:43.114Z,16.40
2022-08-31T06:47:46.996Z,16.60
2022-08-31T06:52:50.403Z,16.80
2022-08-31T06:57:53.914Z,17.00
2022-08-31T07:03:00.230Z,17.20
2022-08-31T07:08:05.293Z,17.30
2022-08-31T07:13:10.549Z,17.50
2022-08-31T07:18:13.849Z,17.70
2022-08-31T07:23:18.038Z,18.00
2022-08-31T07:28:21.446Z,18.20
2022-08-31T07:33:24.756Z,18.40
2022-08-31T07:38:46.471Z,18.60
2022-08-31T07:43:50.060Z,18.80
2022-08-31T07:48:53.111Z,19.10
2022-08-31T07:53:57.514Z,19.20
2022-08-31T07:59:00.731Z,19.50
2022-08-31T08:04:06.632Z,19.70
2022-08-31T08:09:24.136Z,20.00
2022-08-31T08:14:30.354Z,20.20
2022-08-31T08:19:35.038Z,20.20
2022-08-31T08:24:38.075Z,20.50
2022-08-31T08:29:42.252Z,20.50
2022-08-31T08:34:46.561Z,20.60
2022-08-31T08:39:50.189Z,20.70
2022-08-31T08:44:53.921Z,20.80
2022-08-31T08:50:04.392Z,20.70
2022-08-31T08:55:22.758Z,20.90
2022-08-31T09:00:28.752Z,21.30
2022-08-31T09:05:53.534Z,21.30
2022-08-31T09:11:18.482Z,21.10
2022-08-31T09:16:39.961Z,21.20
2022-08-31T09:21:48.412Z,21.30
2022-08-31T09:27:18.154Z,21.20
2022-08-31T09:32:46.181Z,21.00
2022-08-31T09:38:02.797Z,20.90
2022-08-31T09:43:11.004Z,20.80
2022-08-31T09:48:40.533Z,20.90
2022-08-31T09:54:02.469Z,20.80
2022-08-31T09:59:06.511Z,21.10
2022-08-31T10:04:18.676Z,21.20
2022-08-31T10:09:36.672Z,21.10
2022-08-31T10:14:58.151Z,21.30
2022-08-31T10:20:20.262Z,21.30
2022-08-31T10:25:47.432Z,21.10
2022-08-31T10:31:01.522Z,21.30
2022-08-31T10:36:08.658Z,21.10
2022-08-31T10:41:18.321Z,20.80
2022-08-31T10:46:21.740Z,20.50
2022-08-31T10:51:29.523Z,20.20
2022-08-31T10:56:36.822Z,20.00
2022-08-31T11:02:11.881Z,19.70
2022-08-31T11:07:18.752Z,19.50
2022-08-31T11:12:29.001Z,19.50
2022-08-31T11:17:40.129Z,19.60
2022-08-31T11:23:17.582Z,19.80
2022-08-31T11:28:49.612Z,19.80
2022-08-31T11:34:17.211Z,20.20
2022-08-31T11:39:36.373Z,20.50
2022-08-31T11:44:42.213Z,20.70
2022-08-31T11:49:56.317Z,21.20
2022-08-31T11:55:23.812Z,21.30
2022-08-31T12:00:50.981Z,21.00
2022-08-31T12:05:58.552Z,20.80
2022-08-31T12:11:34.825Z,20.60
2022-08-31T12:16:49.393Z,20.30
2022-08-31T12:22:19.777Z,20.30
2022-08-31T12:27:43.322Z,20.30
2022-08-31T12:33:12.148Z,20.40
2022-08-31T12:38:22.431Z,20.60
2022-08-31T12:43:42.310Z,20.80
2022-08-31T12:49:16.218Z,20.80
2022-08-31T12:54:51.754Z,20.50
2022-08-31T13:00:13.376Z,20.40
2022-08-31T13:05:34.939Z,20.60
2022-08-31T13:10:39.221Z,21.30
2022-08-31T13:15:44.644Z,21.50
2022-08-31T13:20:53.590Z,22.00
2022-08-31T13:26:02.573Z,21.80
2022-08-31T13:31:11.973Z,21.40
2022-08-31T13:36:37.291Z,21.20
2022-08-31T13:42:07.092Z,21.20
2022-08-31T13:47:20.799Z,21.30
2022-08-31T13:52:33.142Z,21.40
2022-08-31T13:57:38.863Z,21.60
2022-08-31T14:02:42.627Z,21.60
2022-08-31T14:07:47.288Z,21.60
2022-08-31T14:13:05.073Z,21.50
2022-08-31T14:18:26.942Z,21.30
2022-08-31T14:23:33.050Z,21.00
2022-08-31T14:28:46.285Z,20.90
2022-08-31T14:34:19.422Z,20.90
2022-08-31T14:39:39.951Z,20.90
2022-08-31T14:44:47.286Z,20.60
2022-08-31T14:49:50.761Z,20.20
2022-08-31T14:54:54.235Z,19.80
2022-08-31T15:00:00.392Z,19.50
2022-08-31T15:05:07.442Z,19.30
2022-08-31T15:10:13.431Z,19.30
2022-08-31T15:15:20.063Z,19.40
2022-08-31T15:20:23.605Z,19.60
2022-08-31T15:25:26.890Z,20.00
2022-08-31T15:30:30.287Z,20.40
2022-08-31T15:35:33.592Z,20.60
2022-08-31T15:40:38.889Z,20.40
2022-08-31T15:45:43.547Z,20.00
2022-08-31T15:50:52.873Z,19.90
2022-08-31T15:56:06.859Z,19.60
2022-08-31T16:01:16.744Z,19.50
2022-08-31T16:06:28.479Z,19.40
2022-08-31T16:11:37.316Z,19.40
2022-08-31T16:16:43.066Z,19.50
2022-08-31T16:21:49.527Z,19.70
2022-08-31T16:26:57.214Z,19.70
2022-08-31T16:32:01.002Z,19.80
2022-08-31T16:37:08.323Z,19.80
2022-08-31T16:42:12.929Z,19.80
2022-08-31T16:47:19.339Z,19.60
2022-08-31T16:52:28.508Z,19.60
2022-08-31T16:57:33.348Z,19.50
2022-08-31T17:02:36.726Z,19.50
2022-08-31T17:07:43.323Z,19.40
2022-08-31T17:12:51.778Z,19.30
2022-08-31T17:17:55.806Z,19.10
2022-08-31T17:22:59.268Z,18.70
2022-08-31T17:28:07.639Z,18.40
2022-08-31T17:33:13.455Z,18.20
2022-08-31T17:38:17.680Z,18.00
2022-08-31T17:43:22.588Z,17.70
2022-08-31T17:48:28.567Z,17.50
2022-08-31T17:53:34.745Z,17.30
2022-08-31T17:58:37.897Z,17.20
2022-08-31T18:03:41.512Z,17.00
2022-08-31T18:08:44.787Z,16.80
2022-08-31T18:13:52.958Z,16.60
2022-08-31T18:18:56.979Z,16.50
2022-08-31T18:24:00.381Z,16.30
2022-08-31T18:29:06.675Z,16.20
2022-08-31T18:34:19.404Z,16.10
2022-08-31T18:39:47.716Z,16.00
2022-08-31T18:45:07.397Z,15.90
2022-08-31T18:50:12.336Z,15.80
2022-08-31T18:55:16.194Z,15.70
2022-08-31T19:00:20.297Z,15.70
2022-08-31T19:05:23.773Z,15.60
2022-08-31T19:10:27.256Z,15.50
2022-08-31T19:15:36.245Z,15.40
2022-08-31T19:20:40.796Z,15.30
2022-08-31T19:25:48.584Z,15.10
2022-08-31T19:30:52.167Z,15.00
2022-08-31T19:36:04.919Z,14.80
2022-08-31T19:41:30.057Z,14.70
2022-08-31T19:46:35.725Z,14.50
2022-08-31T19:51:42.027Z,14.40
2022-08-31T19:56:47.310Z,14.30
2022-08-31T20:01:53.662Z,14.20
2022-08-31T20:06:58.377Z,14.20
2022-08-31T20:12:03.577Z,14.20
2022-08-31T20:17:10.404Z,14.30
2022-08-31T20:22:14.338Z,14.30
2022-08-31T20:27:18.780Z,14.30
2022-08-31T20:32:23.262Z,14.30
2022-08-31T20:37:26.592Z,14.20
2022-08-31T20:42:29.948Z,14.20
2022-08-31T20:47:52.251Z,14.20
2022-08-31T20:52:57.246Z,14.20
2022-08-31T20:58:01.355Z,14.10
2022-08-31T21:03:07.308Z,14.10
2022-08-31T21:08:12.553Z,14.00
2022-08-31T21:13:15.967Z,13.90
2022-08-31T21:18:19.714Z,13.90
2022-08-31T21:23:23.025Z,13.80
2022-08-31T21:28:28.762Z,13.70
2022-08-31T21:33:33.042Z,13.60
2022-08-31T21:38:37.863Z,13.60
2022-08-31T21:43:41.315Z,13.50
2022-08-31T21:48:45.432Z,13.40
2022-08-31T21:53:52.074Z,13.40
2022-08-31T21:58:58.261Z,13.40
2022-08-31T22:04:10.654Z,13.40
2022-08-31T22:09:17.094Z,13.40
2022-08-31T22:14:26.944Z,13.30
2022-08-31T22:19:36.932Z,13.30
2022-08-31T22:24:42.907Z,13.30
2022-08-31T22:29:50.804Z,13.20
2022-08-31T22:34:56.253Z,13.10
2022-08-31T22:40:02.583Z,13.10
2022-08-31T22:45:11.158Z,13.10
2022-08-31T22:50:18.433Z,13.10
2022-08-31T22:55:21.935Z,13.10
2022-08-31T23:00:26.364Z,13.00
2022-08-31T23:05:36.232Z,12.90
2022-08-31T23:10:40.853Z,12.80
2022-08-31T23:15:44.411Z,12.70
2022-08-31T23:20:50.571Z,12.60
2022-08-31T23:25:56.193Z,12.50
2022-08-31T23:31:01.626Z,12.40
2022-08-31T23:36:05.914Z,12.30
2022-08-31T23:41:09.889Z,12.20
2022-08-31T23:46:17.285Z,12.10
2022-08-31T23:51:22.853Z,12.00
2022-08-31T23:56:32.624Z,11.90
